createdAt,value
2023-04-09T00:04:36.101Z,9.10
2023-04-09T00:07:09.904Z,9.27
2023-04-09T00:09:50.641Z,9.13
2023-04-09T00:15:27.966Z,11.48
2023-04-09T00:18:12.501Z,9.88
2023-04-09T00:20:50.426Z,10.63
2023-04-09T00:23:21.058Z,8.50
2023-04-09T00:25:54.986Z,10.05
2023-04-09T00:31:12.947Z,9.45
2023-04-09T00:36:13.762Z,7.97
2023-04-09T00:38:42.523Z,10.35
2023-04-09T00:41:14.655Z,9.15
2023-04-09T00:43:48.698Z,9.52
2023-04-09T00:46:20.952Z,10.07
2023-04-09T00:48:52.345Z,11.40
2023-04-09T00:51:25.681Z,9.70
2023-04-09T00:53:58.479Z,11.75
2023-04-09T00:56:49.969Z,12.95
2023-04-09T00:59:18.864Z,11.20
2023-04-09T01:01:46.779Z,11.15
2023-04-09T01:04:15.109Z,12.35
2023-04-09T01:06:57.233Z,11.27
2023-04-09T01:09:29.309Z,12.70
2023-04-09T01:12:34.844Z,11.50
2023-04-09T01:15:18.196Z,11.43
2023-04-09T01:18:11.096Z,9.95
2023-04-09T01:20:57.811Z,10.55
2023-04-09T01:23:38.329Z,11.20
2023-04-09T01:26:26.318Z,9.80
2023-04-09T01:28:57.893Z,9.73
2023-04-09T01:31:34.903Z,8.80
2023-04-09T01:34:03.409Z,10.23
2023-04-09T01:36:32.587Z,10.27
2023-04-09T01:39:05.191Z,9.15
2023-04-09T01:41:34.883Z,11.65
2023-04-09T01:44:04.915Z,10.32
2023-04-09T01:46:36.896Z,11.80
2023-04-09T01:49:05.583Z,9.43
2023-04-09T01:51:34.765Z,8.93
2023-04-09T01:54:03.387Z,9.52
2023-04-09T01:56:45.642Z,9.00
2023-04-09T01:59:14.476Z,9.60
2023-04-09T02:01:50.815Z,8.90
2023-04-09T02:04:34.874Z,8.98
2023-04-09T02:07:16.067Z,8.00
2023-04-09T02:09:47.006Z,9.20
2023-04-09T02:12:18.625Z,10.40
2023-04-09T02:14:52.616Z,9.10
2023-04-09T02:17:21.279Z,8.27
2023-04-09T02:19:50.210Z,8.82
2023-04-09T02:22:19.047Z,9.13
2023-04-09T02:24:48.099Z,10.32
2023-04-09T02:27:16.736Z,11.10
2023-04-09T02:29:45.005Z,12.20
2023-04-09T02:32:14.822Z,11.05
2023-04-09T02:34:42.986Z,10.57
2023-04-09T02:37:11.282Z,10.48
2023-04-09T02:39:39.654Z,10.10
2023-04-09T02:42:08.186Z,10.23
2023-04-09T02:44:36.628Z,10.30
2023-04-09T02:47:05.097Z,9.05
2023-04-09T02:49:33.416Z,9.40
2023-04-09T02:52:01.609Z,10.60
2023-04-09T02:54:29.838Z,8.95
2023-04-09T02:56:57.951Z,9.32
2023-04-09T02:59:26.026Z,9.65
2023-04-09T03:01:54.408Z,10.25
2023-04-09T03:04:22.631Z,9.20
2023-04-09T03:06:51.945Z,9.45
2023-04-09T03:09:20.079Z,10.30
2023-04-09T03:11:48.324Z,9.23
2023-04-09T03:14:16.592Z,9.52
2023-04-09T03:16:46.259Z,9.32
2023-04-09T03:19:14.613Z,8.35
2023-04-09T03:21:43.273Z,8.82
2023-04-09T03:24:11.728Z,10.23
2023-04-09T03:26:41.289Z,10.02
2023-04-09T03:29:14.093Z,9.18
2023-04-09T03:31:42.890Z,9.73
2023-04-09T03:34:11.593Z,9.38
2023-04-09T03:36:39.711Z,10.25
2023-04-09T03:39:22.862Z,9.00
2023-04-09T03:41:51.075Z,7.97
2023-04-09T03:44:20.683Z,8.38
2023-04-09T03:46:58.748Z,8.50
2023-04-09T03:49:27.810Z,8.55
2023-04-09T03:51:59.936Z,8.52
2023-04-09T03:54:36.999Z,8.60
2023-04-09T03:57:10.688Z,8.45
2023-04-09T03:59:41.261Z,8.52
2023-04-09T04:05:51.589Z,7.55
2023-04-09T04:08:20.684Z,7.80
2023-04-09T04:10:49.002Z,8.63
2023-04-09T04:13:20.335Z,8.45
2023-04-09T04:15:54.173Z,7.15
2023-04-09T04:18:24.340Z,8.75
2023-04-09T04:20:54.482Z,7.78
2023-04-09T04:23:25.442Z,7.85
2023-04-09T04:26:00.101Z,7.85
2023-04-09T04:28:35.390Z,8.13
2023-04-09T04:31:07.573Z,7.85
2023-04-09T04:33:35.634Z,9.30
2023-04-09T04:36:15.528Z,8.07
2023-04-09T04:38:48.369Z,8.15
2023-04-09T04:41:31.682Z,9.65
2023-04-09T04:44:09.899Z,9.60
2023-04-09T04:46:39.214Z,8.10
2023-04-09T04:49:07.285Z,8.43
2023-04-09T04:51:42.442Z,8.90
2023-04-09T04:54:16.746Z,9.70
2023-04-09T04:56:54.382Z,9.47
2023-04-09T04:59:39.452Z,9.55
2023-04-09T05:02:10.140Z,9.55
2023-04-09T05:04:58.665Z,10.00
2023-04-09T05:07:35.441Z,9.73
2023-04-09T05:10:04.124Z,10.27
2023-04-09T05:12:38.488Z,9.18
2023-04-09T05:15:08.447Z,9.43
2023-04-09T05:17:38.656Z,10.32
2023-04-09T05:20:16.708Z,11.32
2023-04-09T05:22:53.270Z,10.93
2023-04-09T05:25:28.393Z,10.38
2023-04-09T05:27:57.549Z,10.32
2023-04-09T05:30:26.752Z,9.65
2023-04-09T05:32:56.173Z,12.43
2023-04-09T05:35:27.403Z,11.27
2023-04-09T05:37:55.938Z,11.10
2023-04-09T05:40:24.641Z,11.27
2023-04-09T05:42:54.173Z,10.80
2023-04-09T05:48:04.912Z,9.18
2023-04-09T05:50:38.176Z,10.35
2023-04-09T05:53:15.932Z,10.57
2023-04-09T05:55:45.249Z,10.13
2023-04-09T05:58:14.405Z,9.82
2023-04-09T06:00:42.586Z,10.45
2023-04-09T06:03:11.466Z,10.43
2023-04-09T06:05:39.658Z,9.55
2023-04-09T06:08:08.574Z,11.02
2023-04-09T06:10:38.796Z,8.98
2023-04-09T06:13:07.630Z,9.80
2023-04-09T06:15:39.566Z,11.02
2023-04-09T06:18:08.015Z,9.80
2023-04-09T06:20:36.350Z,10.15
2023-04-09T06:23:04.928Z,10.32
2023-04-09T06:25:33.170Z,10.13
2023-04-09T06:28:01.513Z,11.00
2023-04-09T06:30:31.361Z,12.45
2023-04-09T06:32:59.581Z,11.35
2023-04-09T06:35:28.572Z,11.95
2023-04-09T06:37:57.260Z,10.95
2023-04-09T06:40:25.402Z,10.70
2023-04-09T06:42:53.386Z,11.25
2023-04-09T06:45:28.036Z,9.73
2023-04-09T06:47:57.522Z,10.35
2023-04-09T06:50:25.823Z,10.38
2023-04-09T06:52:54.511Z,9.85
2023-04-09T06:55:22.686Z,11.60
2023-04-09T06:57:50.772Z,9.63
2023-04-09T07:00:19.500Z,11.20
2023-04-09T07:02:48.360Z,10.88
2023-04-09T07:05:16.822Z,10.20
2023-04-09T07:07:44.899Z,10.75
2023-04-09T07:10:12.972Z,11.88
2023-04-09T07:12:41.161Z,10.40
2023-04-09T07:15:09.671Z,10.65
2023-04-09T07:17:37.959Z,10.68
2023-04-09T07:20:06.976Z,9.82
2023-04-09T07:22:36.512Z,10.80
2023-04-09T07:25:05.057Z,10.85
2023-04-09T07:27:33.741Z,10.45
2023-04-09T07:30:02.392Z,11.07
2023-04-09T07:32:31.129Z,10.68
2023-04-09T07:34:59.780Z,10.85
2023-04-09T07:37:28.100Z,10.48
2023-04-09T07:39:56.054Z,10.52
2023-04-09T07:42:24.414Z,11.38
2023-04-09T07:44:52.484Z,11.25
2023-04-09T07:47:20.872Z,11.82
2023-04-09T07:49:49.389Z,10.60
2023-04-09T07:52:18.009Z,11.68
2023-04-09T07:54:46.342Z,9.82
2023-04-09T07:57:14.624Z,10.45
2023-04-09T07:59:42.672Z,11.10
2023-04-09T08:02:14.347Z,11.68
2023-04-09T08:04:43.270Z,9.95
2023-04-09T08:07:12.444Z,10.15
2023-04-09T08:09:42.895Z,11.88
2023-04-09T08:12:11.576Z,11.02
2023-04-09T08:14:39.637Z,10.63
2023-04-09T08:17:08.511Z,11.50
2023-04-09T08:19:37.555Z,10.20
2023-04-09T08:22:06.714Z,9.77
2023-04-09T08:24:34.944Z,10.90
2023-04-09T08:27:03.195Z,9.95
2023-04-09T08:29:32.284Z,9.82
2023-04-09T08:32:00.282Z,10.73
2023-04-09T08:34:28.892Z,11.88
2023-04-09T08:36:57.320Z,9.73
2023-04-09T08:39:25.666Z,11.55
2023-04-09T08:41:53.722Z,9.00
2023-04-09T08:44:22.393Z,11.25
2023-04-09T08:46:51.846Z,10.30
2023-04-09T08:49:21.597Z,9.52
2023-04-09T08:51:50.640Z,10.13
2023-04-09T08:54:21.953Z,11.48
2023-04-09T08:59:21.203Z,9.65
2023-04-09T09:04:22.628Z,9.48
2023-04-09T09:06:51.122Z,9.25
2023-04-09T09:09:19.350Z,9.80
2023-04-09T09:11:50.644Z,10.18
2023-04-09T09:16:58.012Z,11.00
2023-04-09T09:19:26.449Z,11.45
2023-04-09T09:22:02.729Z,10.95
2023-04-09T09:24:32.573Z,10.35
2023-04-09T09:27:01.762Z,11.55
2023-04-09T09:29:30.174Z,9.77
2023-04-09T09:31:58.146Z,10.93
2023-04-09T09:34:27.218Z,10.98
2023-04-09T09:36:56.705Z,11.07
2023-04-09T09:39:24.945Z,11.88
2023-04-09T09:42:08.519Z,11.05
2023-04-09T09:44:36.580Z,10.98
2023-04-09T09:47:05.326Z,11.68
2023-04-09T09:49:33.551Z,11.30
2023-04-09T09:52:03.266Z,11.20
2023-04-09T09:54:42.986Z,12.63
2023-04-09T09:57:13.911Z,12.45
2023-04-09T09:59:56.875Z,11.25
2023-04-09T10:02:27.265Z,11.63
2023-04-09T10:04:55.782Z,11.90
2023-04-09T10:07:24.610Z,11.75
2023-04-09T10:09:53.967Z,10.63
2023-04-09T10:12:26.446Z,11.60
2023-04-09T10:14:56.825Z,11.18
2023-04-09T10:17:24.886Z,11.43
2023-04-09T10:20:15.167Z,11.25
2023-04-09T10:22:47.537Z,11.13
2023-04-09T10:25:16.022Z,11.48
2023-04-09T10:27:49.573Z,10.43
2023-04-09T10:30:34.593Z,12.07
2023-04-09T10:33:17.081Z,12.10
2023-04-09T10:35:49.461Z,12.88
2023-04-09T10:38:18.310Z,10.43
2023-04-09T10:40:51.353Z,11.38
2023-04-09T10:43:23.917Z,11.00
2023-04-09T10:45:55.381Z,11.82
2023-04-09T10:48:27.526Z,11.30
2023-04-09T10:50:55.612Z,10.32
2023-04-09T10:53:26.338Z,10.32
2023-04-09T10:55:55.554Z,11.02
2023-04-09T10:58:23.776Z,10.15
2023-04-09T11:00:54.259Z,10.82
2023-04-09T11:03:32.630Z,10.85
2023-04-09T11:06:06.806Z,9.70
2023-04-09T11:08:35.709Z,10.38
2023-04-09T11:11:05.110Z,9.93
2023-04-09T11:13:34.851Z,9.48
2023-04-09T11:16:08.147Z,10.33
2023-04-09T11:18:38.492Z,9.25
2023-04-09T11:21:07.150Z,9.02
2023-04-09T11:23:35.753Z,10.23
2023-04-09T11:26:04.383Z,10.88
2023-04-09T11:28:33.336Z,10.05
2023-04-09T11:31:01.978Z,11.23
2023-04-09T11:33:34.902Z,11.77
2023-04-09T11:36:07.237Z,11.20
2023-04-09T11:38:37.176Z,10.30
2023-04-09T11:41:05.574Z,10.13
2023-04-09T11:43:36.977Z,8.75
2023-04-09T11:46:06.840Z,10.80
2023-04-09T11:48:36.123Z,10.00
2023-04-09T11:51:05.940Z,10.00
2023-04-09T11:53:34.645Z,9.73
2023-04-09T11:56:03.556Z,12.45
2023-04-09T11:58:33.029Z,9.85
2023-04-09T12:01:02.244Z,11.05
2023-04-09T12:03:37.472Z,9.82
2023-04-09T12:06:07.515Z,9.77
2023-04-09T12:08:43.331Z,8.73
2023-04-09T12:11:13.665Z,10.43
2023-04-09T12:13:43.684Z,8.98
2023-04-09T12:16:16.375Z,10.93
2023-04-09T12:18:45.280Z,9.68
2023-04-09T12:21:15.895Z,11.27
2023-04-09T12:23:45.553Z,10.82
2023-04-09T12:26:14.429Z,10.65
2023-04-09T12:28:43.227Z,10.00
2023-04-09T12:31:12.438Z,10.27
2023-04-09T12:33:43.227Z,10.07
2023-04-09T12:36:12.729Z,10.82
2023-04-09T12:38:41.572Z,10.30
2023-04-09T12:41:11.506Z,10.15
2023-04-09T12:43:39.957Z,10.27
2023-04-09T12:46:08.534Z,10.63
2023-04-09T12:48:36.655Z,10.10
2023-04-09T12:51:05.216Z,10.40
2023-04-09T12:53:33.603Z,9.90
2023-04-09T12:56:01.990Z,9.77
2023-04-09T12:58:30.183Z,10.65
2023-04-09T13:01:00.118Z,10.48
2023-04-09T13:03:29.483Z,10.02
2023-04-09T13:06:02.398Z,10.20
2023-04-09T13:08:32.471Z,9.80
2023-04-09T13:11:01.218Z,9.50
2023-04-09T13:13:31.299Z,10.05
2023-04-09T13:15:59.702Z,10.05
2023-04-09T13:18:27.788Z,10.18
2023-04-09T13:20:59.113Z,11.63
2023-04-09T13:23:27.376Z,10.32
2023-04-09T13:25:55.865Z,11.07
2023-04-09T13:28:24.094Z,10.80
2023-04-09T13:30:55.411Z,11.43
2023-04-09T13:33:23.681Z,10.30
2023-04-09T13:35:52.237Z,11.27
2023-04-09T13:38:21.011Z,11.60
2023-04-09T13:40:49.623Z,12.00
2023-04-09T13:43:18.653Z,11.75
2023-04-09T13:45:47.727Z,11.90
2023-04-09T13:48:16.289Z,11.57
2023-04-09T13:50:45.135Z,11.90
2023-04-09T13:53:14.659Z,13.10
2023-04-09T13:55:43.785Z,13.45
2023-04-09T13:58:12.971Z,13.20
2023-04-09T14:00:42.227Z,12.05
2023-04-09T14:03:15.701Z,12.63
2023-04-09T14:05:44.482Z,11.93
2023-04-09T14:08:14.193Z,11.75
2023-04-09T14:10:43.230Z,11.68
2023-04-09T14:13:12.991Z,12.00
2023-04-09T14:15:42.139Z,11.30
2023-04-09T14:18:11.305Z,11.30
2023-04-09T14:20:42.718Z,11.77
2023-04-09T14:23:12.720Z,12.10
2023-04-09T14:25:44.859Z,13.50
2023-04-09T14:28:14.346Z,11.57
2023-04-09T14:30:47.328Z,11.27
2023-04-09T14:33:17.138Z,12.20
2023-04-09T14:35:47.061Z,12.33
2023-04-09T14:38:15.628Z,12.77
2023-04-09T14:40:44.438Z,12.13
2023-04-09T14:43:15.343Z,11.32
2023-04-09T14:45:56.964Z,11.35
2023-04-09T14:48:25.240Z,13.02
2023-04-09T14:50:53.587Z,11.75
2023-04-09T14:53:21.778Z,12.10
2023-04-09T14:55:50.380Z,11.93
2023-04-09T14:58:18.856Z,11.95
2023-04-09T15:00:49.212Z,12.30
2023-04-09T15:03:17.936Z,11.70
2023-04-09T15:05:48.653Z,12.98
2023-04-09T15:08:17.946Z,13.00
2023-04-09T15:10:47.330Z,12.15
2023-04-09T15:13:15.830Z,12.55
2023-04-09T15:15:54.521Z,11.57
2023-04-09T15:18:22.733Z,12.93
2023-04-09T15:20:51.578Z,11.73
2023-04-09T15:23:19.977Z,11.65
2023-04-09T15:25:49.214Z,10.73
2023-04-09T15:28:17.931Z,11.30
2023-04-09T15:30:48.141Z,10.65
2023-04-09T15:33:17.527Z,10.40
2023-04-09T15:35:46.346Z,10.50
2023-04-09T15:38:14.535Z,10.63
2023-04-09T15:40:45.418Z,9.52
2023-04-09T15:43:15.132Z,10.48
2023-04-09T15:45:45.438Z,11.27
2023-04-09T15:48:13.886Z,11.07
2023-04-09T15:50:43.260Z,10.48
2023-04-09T15:53:11.856Z,10.75
2023-04-09T15:55:40.488Z,10.30
2023-04-09T15:58:09.269Z,10.55
2023-04-09T16:00:41.613Z,10.02
2023-04-09T16:03:11.160Z,10.65
2023-04-09T16:05:40.669Z,11.43
2023-04-09T16:08:09.428Z,9.38
2023-04-09T16:10:44.804Z,8.55
2023-04-09T16:13:13.797Z,9.25
2023-04-09T16:15:42.086Z,10.05
2023-04-09T16:18:12.214Z,9.57
2023-04-09T16:20:41.665Z,8.93
2023-04-09T16:23:11.092Z,8.77
2023-04-09T16:25:40.898Z,9.48
2023-04-09T16:28:09.553Z,9.25
2023-04-09T16:30:40.477Z,7.65
2023-04-09T16:35:41.370Z,9.48
2023-04-09T16:38:11.048Z,8.02
2023-04-09T16:40:43.239Z,8.00
2023-04-09T16:43:12.681Z,7.88
2023-04-09T16:45:41.217Z,7.53
2023-04-09T16:48:13.368Z,7.32
2023-04-09T16:50:45.334Z,8.35
2023-04-09T16:53:16.101Z,7.63
2023-04-09T16:55:45.359Z,7.90
2023-04-09T16:58:14.450Z,7.43
2023-04-09T17:00:46.950Z,7.10
2023-04-09T17:03:16.663Z,7.47
2023-04-09T17:05:50.211Z,8.23
2023-04-09T17:08:21.933Z,7.50
2023-04-09T17:10:55.218Z,8.02
2023-04-09T17:13:23.342Z,6.65
2023-04-09T17:15:52.457Z,7.65
2023-04-09T17:18:21.229Z,7.57
2023-04-09T17:20:50.512Z,8.02
2023-04-09T17:23:18.755Z,8.32
2023-04-09T17:25:48.851Z,7.55
2023-04-09T17:28:18.825Z,8.43
2023-04-09T17:30:47.701Z,8.52
2023-04-09T17:33:15.822Z,7.82
2023-04-09T17:35:44.372Z,8.55
2023-04-09T17:38:17.734Z,7.85
2023-04-09T17:40:46.823Z,8.00
2023-04-09T17:43:15.018Z,7.30
2023-04-09T17:45:43.740Z,8.98
2023-04-09T17:48:12.316Z,8.50
2023-04-09T17:50:42.562Z,7.85
2023-04-09T17:53:11.964Z,9.05
2023-04-09T17:55:40.916Z,8.35
2023-04-09T17:58:09.194Z,7.60
2023-04-09T18:00:38.020Z,8.18
2023-04-09T18:03:06.415Z,8.02
2023-04-09T18:05:35.558Z,8.82
2023-04-09T18:08:05.101Z,7.78
2023-04-09T18:10:33.418Z,8.30
2023-04-09T18:13:01.537Z,8.93
2023-04-09T18:15:31.536Z,7.72
2023-04-09T18:18:00.863Z,8.82
2023-04-09T18:20:29.049Z,8.50
2023-04-09T18:22:57.347Z,8.57
2023-04-09T18:25:25.863Z,9.25
2023-04-09T18:27:54.111Z,8.25
2023-04-09T18:30:22.434Z,8.98
2023-04-09T18:32:52.133Z,10.45
2023-04-09T18:35:20.565Z,10.68
2023-04-09T18:37:48.573Z,11.57
2023-04-09T18:40:18.873Z,11.98
2023-04-09T18:42:54.130Z,11.75
2023-04-09T18:45:22.578Z,11.90
2023-04-09T18:47:50.846Z,10.73
2023-04-09T18:50:19.386Z,11.48
2023-04-09T18:52:47.632Z,10.10
2023-04-09T18:55:16.574Z,10.27
2023-04-09T18:57:48.433Z,9.10
2023-04-09T19:00:16.889Z,9.45
2023-04-09T19:02:45.652Z,8.52
2023-04-09T19:05:14.501Z,8.93
2023-04-09T19:07:42.738Z,9.13
2023-04-09T19:10:11.360Z,9.00
2023-04-09T19:12:39.611Z,9.93
2023-04-09T19:15:08.406Z,10.18
2023-04-09T19:17:37.564Z,9.80
2023-04-09T19:20:06.517Z,12.00
2023-04-09T19:22:34.635Z,10.30
2023-04-09T19:25:02.921Z,9.30
2023-04-09T19:27:31.315Z,11.07
2023-04-09T19:30:01.379Z,11.57
2023-04-09T19:32:30.154Z,10.05
2023-04-09T19:34:58.275Z,9.63
2023-04-09T19:37:28.369Z,11.25
2023-04-09T19:39:56.888Z,10.00
2023-04-09T19:42:25.444Z,10.38
2023-04-09T19:44:54.840Z,11.32
2023-04-09T19:47:23.925Z,10.90
2023-04-09T19:49:52.264Z,11.77
2023-04-09T19:52:21.116Z,10.43
2023-04-09T19:54:53.560Z,11.50
2023-04-09T19:57:22.088Z,11.30
2023-04-09T19:59:53.978Z,13.18
2023-04-09T20:02:24.875Z,11.98
2023-04-09T20:04:54.705Z,11.65
2023-04-09T20:07:22.662Z,11.63
2023-04-09T20:09:51.054Z,12.38
2023-04-09T20:12:22.176Z,12.15
2023-04-09T20:14:50.308Z,13.60
2023-04-09T20:17:20.689Z,12.93
2023-04-09T20:19:50.115Z,12.18
2023-04-09T20:22:18.563Z,12.07
2023-04-09T20:24:46.890Z,12.07
2023-04-09T20:27:15.499Z,12.85
2023-04-09T20:29:43.773Z,11.95
2023-04-09T20:32:12.445Z,10.90
2023-04-09T20:34:41.128Z,10.68
2023-04-09T20:37:09.671Z,10.63
2023-04-09T20:39:38.123Z,10.20
2023-04-09T20:42:06.792Z,14.82
2023-04-09T20:44:35.718Z,16.65
2023-04-09T20:47:03.852Z,14.57
2023-04-09T20:49:32.151Z,13.35
2023-04-09T20:52:01.667Z,14.63
2023-04-09T20:54:30.698Z,13.27
2023-04-09T20:56:58.950Z,12.18
2023-04-09T20:59:28.427Z,10.85
2023-04-09T21:01:57.579Z,10.18
2023-04-09T21:04:26.392Z,10.98
2023-04-09T21:06:55.068Z,11.40
2023-04-09T21:09:25.470Z,10.60
2023-04-09T21:11:53.767Z,12.10
2023-04-09T21:14:21.912Z,11.27
2023-04-09T21:16:50.730Z,11.00
2023-04-09T21:19:19.373Z,10.35
2023-04-09T21:21:47.917Z,11.05
2023-04-09T21:24:17.203Z,11.52
2023-04-09T21:26:51.535Z,9.00
2023-04-09T21:29:23.214Z,11.18
2023-04-09T21:31:51.798Z,12.65
2023-04-09T21:34:20.040Z,12.70
2023-04-09T21:36:50.624Z,12.30
2023-04-09T21:39:19.897Z,11.45
2023-04-09T21:41:48.494Z,10.90
2023-04-09T21:44:16.822Z,10.57
2023-04-09T21:46:45.708Z,9.90
2023-04-09T21:49:14.362Z,9.70
2023-04-09T21:51:42.938Z,9.05
2023-04-09T21:54:11.834Z,10.93
2023-04-09T21:56:40.945Z,11.07
2023-04-09T21:59:09.533Z,9.65
2023-04-09T22:01:38.165Z,9.77
2023-04-09T22:04:07.196Z,8.82
2023-04-09T22:06:35.591Z,9.55
2023-04-09T22:09:04.288Z,8.23
2023-04-09T22:11:34.501Z,9.32
2023-04-09T22:14:03.019Z,9.30
2023-04-09T22:16:31.647Z,9.80
2023-04-09T22:19:00.077Z,9.88
2023-04-09T22:21:28.143Z,8.23
2023-04-09T22:23:56.348Z,8.80
2023-04-09T22:26:25.380Z,9.75
2023-04-09T22:28:53.987Z,9.27
2023-04-09T22:31:23.068Z,9.60
2023-04-09T22:33:51.383Z,10.57
2023-04-09T22:36:19.541Z,10.32
2023-04-09T22:38:50.390Z,10.40
2023-04-09T22:41:20.316Z,11.48
2023-04-09T22:43:48.967Z,9.48
2023-04-09T22:46:17.163Z,10.25
2023-04-09T22:48:48.859Z,10.48
2023-04-09T22:51:18.108Z,9.85
2023-04-09T22:53:48.194Z,10.23
2023-04-09T22:56:17.136Z,11.23
2023-04-09T22:58:45.814Z,10.57
2023-04-09T23:01:14.114Z,10.45
2023-04-09T23:03:42.383Z,11.95
2023-04-09T23:06:10.701Z,11.25
2023-04-09T23:08:40.845Z,10.55
2023-04-09T23:11:09.237Z,11.10
2023-04-09T23:13:37.896Z,10.20
2023-04-09T23:16:10.659Z,10.60
2023-04-09T23:18:39.444Z,10.00
2023-04-09T23:21:09.234Z,10.18
2023-04-09T23:23:38.293Z,9.60
2023-04-09T23:26:07.676Z,9.20
2023-04-09T23:28:36.845Z,10.55
2023-04-09T23:31:08.247Z,10.52
2023-04-09T23:33:36.619Z,11.90
2023-04-09T23:36:05.324Z,11.10
2023-04-09T23:38:37.248Z,10.40
2023-04-09T23:41:06.609Z,10.07
2023-04-09T23:43:35.130Z,10.52
2023-04-09T23:46:03.772Z,9.93
2023-04-09T23:48:32.441Z,9.10
2023-04-09T23:51:01.144Z,10.07
2023-04-09T23:53:29.191Z,9.77
2023-04-09T23:55:57.086Z,10.52
2023-04-09T23:58:25.060Z,10.98
